createdAt,value
2022-08-19T00:00:28.357Z,962.34
2022-08-19T00:01:28.721Z,962.36
2022-08-19T00:02:09.359Z,962.35
2022-08-19T00:02:58.352Z,962.37
2022-08-19T00:03:48.328Z,962.36
2022-08-19T00:04:38.362Z,962.34
2022-08-19T00:05:28.308Z,962.35
2022-08-19T00:06:18.326Z,962.37
2022-08-19T00:07:08.280Z,962.36
2022-08-19T00:07:58.278Z,962.32
2022-08-19T00:08:48.288Z,962.34
2022-08-19T00:09:38.288Z,962.31
2022-08-19T00:10:28.250Z,962.29
2022-08-19T00:11:25.474Z,962.26
2022-08-19T00:12:09.243Z,962.26
2022-08-19T00:12:58.228Z,962.26
2022-08-19T00:13:48.228Z,962.23
2022-08-19T00:14:38.378Z,962.21
2022-08-19T00:15:28.221Z,962.22
2022-08-19T00:16:18.196Z,962.23
2022-08-19T00:17:08.199Z,962.23
2022-08-19T00:17:58.194Z,962.21
2022-08-19T00:18:48.168Z,962.18
2022-08-19T00:19:38.167Z,962.16
2022-08-19T00:20:28.167Z,962.19
2022-08-19T00:21:18.158Z,962.22
2022-08-19T00:22:08.161Z,962.23
2022-08-19T00:22:58.133Z,962.22
2022-08-19T00:23:48.128Z,962.25
2022-08-19T00:24:38.119Z,962.20
2022-08-19T00:25:29.916Z,962.19
2022-08-19T00:26:18.099Z,962.16
2022-08-19T00:27:25.753Z,962.14
2022-08-19T00:27:59.088Z,962.08
2022-08-19T00:28:48.087Z,962.04
2022-08-19T00:29:38.079Z,962.04
2022-08-19T00:30:28.059Z,962.05
2022-08-19T00:31:18.058Z,962.04
2022-08-19T00:32:08.061Z,962.05
2022-08-19T00:32:58.048Z,962.07
2022-08-19T00:33:48.029Z,962.15
2022-08-19T00:34:38.028Z,962.12
2022-08-19T00:35:28.001Z,962.18
2022-08-19T00:36:18.021Z,962.20
2022-08-19T00:37:08.068Z,962.16
2022-08-19T00:37:57.978Z,962.18
2022-08-19T00:38:47.968Z,962.16
2022-08-19T00:39:38.066Z,962.12
2022-08-19T00:40:27.962Z,962.06
2022-08-19T00:41:17.966Z,962.05
2022-08-19T00:42:07.950Z,962.06
2022-08-19T00:42:57.948Z,962.07
2022-08-19T00:43:47.929Z,962.10
2022-08-19T00:44:37.928Z,962.06
2022-08-19T00:45:27.967Z,962.05
2022-08-19T00:46:17.912Z,962.06
2022-08-19T00:47:07.887Z,962.04
2022-08-19T00:47:58.879Z,962.05
2022-08-19T00:48:47.880Z,962.06
2022-08-19T00:49:37.881Z,962.05
2022-08-19T00:50:27.851Z,962.06
2022-08-19T00:51:17.849Z,962.06
2022-08-19T00:52:07.850Z,962.03
2022-08-19T00:52:57.848Z,962.06
2022-08-19T00:53:47.868Z,962.06
2022-08-19T00:54:37.849Z,962.06
2022-08-19T00:55:27.819Z,962.06
2022-08-19T00:56:17.810Z,962.06
2022-08-19T00:57:07.789Z,962.04
2022-08-19T00:57:57.781Z,962.05
2022-08-19T00:58:47.768Z,961.99
2022-08-19T00:59:56.373Z,962.05
2022-08-19T01:00:28.792Z,962.11
2022-08-19T01:01:17.802Z,962.09
2022-08-19T01:02:07.737Z,962.07
2022-08-19T01:02:57.738Z,962.02
2022-08-19T01:03:57.043Z,962.08
2022-08-19T01:04:38.729Z,962.07
2022-08-19T01:05:27.729Z,962.06
2022-08-19T01:06:20.045Z,962.05
2022-08-19T01:07:07.679Z,962.05
2022-08-19T01:07:57.689Z,962.04
2022-08-19T01:08:50.231Z,962.04
2022-08-19T01:09:37.659Z,962.07
2022-08-19T01:10:27.670Z,962.06
2022-08-19T01:11:17.685Z,962.02
2022-08-19T01:12:07.648Z,962.06
2022-08-19T01:12:57.628Z,962.00
2022-08-19T01:13:49.744Z,962.03
2022-08-19T01:14:37.632Z,962.00
2022-08-19T01:15:27.628Z,961.98
2022-08-19T01:16:17.610Z,961.98
2022-08-19T01:17:07.591Z,962.00
2022-08-19T01:17:57.589Z,962.04
2022-08-19T01:18:47.578Z,962.03
2022-08-19T01:19:43.806Z,962.03
2022-08-19T01:20:28.579Z,961.99
2022-08-19T01:21:17.547Z,962.02
2022-08-19T01:22:14.147Z,962.05
2022-08-19T01:22:58.541Z,962.05
2022-08-19T01:23:47.529Z,962.09
2022-08-19T01:24:37.530Z,962.04
2022-08-19T01:25:28.515Z,962.06
2022-08-19T01:26:17.497Z,962.06
2022-08-19T01:27:07.496Z,962.05
2022-08-19T01:27:59.119Z,962.07
2022-08-19T01:28:48.469Z,962.06
2022-08-19T01:29:37.479Z,962.05
2022-08-19T01:30:27.508Z,962.04
2022-08-19T01:31:27.129Z,962.00
2022-08-19T01:32:08.439Z,962.06
2022-08-19T01:32:58.449Z,962.00
2022-08-19T01:33:47.436Z,962.02
2022-08-19T01:34:37.446Z,962.04
2022-08-19T01:35:27.417Z,962.02
2022-08-19T01:36:17.418Z,962.01
2022-08-19T01:37:07.387Z,961.99
2022-08-19T01:37:57.396Z,961.98
2022-08-19T01:38:47.378Z,961.94
2022-08-19T01:39:37.396Z,961.94
2022-08-19T01:40:27.367Z,961.87
2022-08-19T01:41:17.372Z,961.86
2022-08-19T01:42:07.337Z,961.86
2022-08-19T01:42:57.329Z,961.87
2022-08-19T01:44:13.188Z,961.85
2022-08-19T01:44:38.329Z,961.87
2022-08-19T01:45:27.325Z,961.82
2022-08-19T01:46:17.298Z,961.84
2022-08-19T01:47:07.306Z,961.86
2022-08-19T01:48:01.441Z,961.81
2022-08-19T01:48:48.278Z,961.79
2022-08-19T01:49:37.278Z,961.85
2022-08-19T01:50:27.258Z,961.80
2022-08-19T01:51:17.242Z,961.77
2022-08-19T01:52:07.230Z,961.80
2022-08-19T01:53:02.190Z,961.84
2022-08-19T01:53:48.257Z,961.83
2022-08-19T01:54:37.220Z,961.83
2022-08-19T01:55:27.208Z,961.84
2022-08-19T01:56:17.206Z,961.83
2022-08-19T01:57:07.178Z,961.80
2022-08-19T01:57:57.189Z,961.83
2022-08-19T01:58:47.206Z,961.83
2022-08-19T01:59:37.160Z,961.82
2022-08-19T02:00:27.159Z,961.82
2022-08-19T02:01:17.242Z,961.82
2022-08-19T02:02:07.162Z,961.83
2022-08-19T02:02:57.138Z,961.79
2022-08-19T02:03:47.138Z,961.72
2022-08-19T02:04:37.128Z,961.73
2022-08-19T02:05:27.109Z,961.70
2022-08-19T02:06:17.089Z,961.72
2022-08-19T02:07:07.147Z,961.68
2022-08-19T02:07:57.077Z,961.68
2022-08-19T02:08:47.111Z,961.69
2022-08-19T02:09:37.071Z,961.69
2022-08-19T02:10:27.071Z,961.70
2022-08-19T02:11:17.047Z,961.73
2022-08-19T02:12:07.049Z,961.76
2022-08-19T02:12:57.028Z,961.76
2022-08-19T02:13:47.016Z,961.76
2022-08-19T02:14:37.009Z,961.74
2022-08-19T02:15:27.008Z,961.74
2022-08-19T02:16:16.997Z,961.76
2022-08-19T02:17:06.999Z,961.78
2022-08-19T02:17:57.001Z,961.78
2022-08-19T02:18:47.000Z,961.73
2022-08-19T02:19:39.032Z,961.74
2022-08-19T02:20:26.969Z,961.72
2022-08-19T02:21:16.958Z,961.79
2022-08-19T02:22:06.951Z,961.76
2022-08-19T02:22:56.955Z,961.76
2022-08-19T02:23:46.928Z,961.76
2022-08-19T02:24:36.928Z,961.75
2022-08-19T02:25:26.908Z,961.76
2022-08-19T02:26:16.899Z,961.79
2022-08-19T02:27:06.890Z,961.72
2022-08-19T02:27:56.893Z,961.79
2022-08-19T02:28:46.887Z,961.79
2022-08-19T02:29:36.870Z,961.78
2022-08-19T02:30:26.858Z,961.75
2022-08-19T02:31:16.868Z,961.75
2022-08-19T02:32:06.849Z,961.72
2022-08-19T02:32:57.002Z,961.76
2022-08-19T02:33:46.828Z,961.79
2022-08-19T02:34:36.836Z,961.74
2022-08-19T02:35:26.797Z,961.75
2022-08-19T02:36:16.809Z,961.76
2022-08-19T02:37:06.815Z,961.75
2022-08-19T02:37:56.787Z,961.75
2022-08-19T02:38:47.669Z,961.72
2022-08-19T02:39:37.822Z,961.69
2022-08-19T02:40:26.768Z,961.68
2022-08-19T02:41:16.759Z,961.67
2022-08-19T02:42:06.728Z,961.60
2022-08-19T02:42:56.750Z,961.63
2022-08-19T02:44:30.664Z,961.62
2022-08-19T02:44:37.728Z,961.61
2022-08-19T02:45:26.709Z,961.60
2022-08-19T02:46:16.719Z,961.61
2022-08-19T02:47:06.691Z,961.58
2022-08-19T02:47:56.702Z,961.57
2022-08-19T02:48:46.677Z,961.56
2022-08-19T02:49:36.676Z,961.57
2022-08-19T02:50:26.668Z,961.57
2022-08-19T02:51:16.661Z,961.59
2022-08-19T02:52:06.639Z,961.59
2022-08-19T02:52:56.709Z,961.58
2022-08-19T02:53:46.616Z,961.59
2022-08-19T02:54:36.610Z,961.61
2022-08-19T02:55:26.598Z,961.63
2022-08-19T02:56:16.608Z,961.61
2022-08-19T02:57:06.598Z,961.62
2022-08-19T02:57:56.588Z,961.61
2022-08-19T02:58:46.758Z,961.65
2022-08-19T02:59:36.578Z,961.62
2022-08-19T03:00:26.546Z,961.61
2022-08-19T03:01:16.572Z,961.62
2022-08-19T03:02:06.548Z,961.63
2022-08-19T03:02:56.538Z,961.60
2022-08-19T03:03:46.551Z,961.60
2022-08-19T03:04:36.518Z,961.58
2022-08-19T03:05:47.056Z,961.58
2022-08-19T03:06:17.509Z,961.62
2022-08-19T03:07:07.208Z,961.64
2022-08-19T03:07:56.486Z,961.63
2022-08-19T03:08:46.468Z,961.66
2022-08-19T03:09:36.468Z,961.64
2022-08-19T03:10:26.462Z,961.66
2022-08-19T03:11:16.448Z,961.72
2022-08-19T03:12:06.448Z,961.75
2022-08-19T03:12:56.428Z,961.76
2022-08-19T03:13:46.408Z,961.82
2022-08-19T03:14:36.410Z,961.81
2022-08-19T03:15:26.395Z,961.82
2022-08-19T03:16:16.388Z,961.82
2022-08-19T03:17:06.389Z,961.85
2022-08-19T03:17:56.383Z,961.83
2022-08-19T03:18:46.368Z,961.84
2022-08-19T03:19:36.376Z,961.80
2022-08-19T03:20:26.356Z,961.79
2022-08-19T03:21:16.357Z,961.80
2022-08-19T03:22:06.348Z,961.80
2022-08-19T03:22:56.326Z,961.85
2022-08-19T03:23:46.328Z,961.80
2022-08-19T03:24:36.318Z,961.81
2022-08-19T03:25:26.296Z,961.82
2022-08-19T03:26:17.244Z,961.82
2022-08-19T03:27:06.307Z,961.81
2022-08-19T03:27:56.300Z,961.88
2022-08-19T03:28:51.010Z,961.87
2022-08-19T03:29:43.194Z,961.85
2022-08-19T03:30:27.258Z,961.84
2022-08-19T03:31:42.129Z,961.84
2022-08-19T03:32:07.231Z,961.85
2022-08-19T03:32:57.228Z,961.85
2022-08-19T03:33:46.225Z,961.92
2022-08-19T03:34:36.220Z,961.86
2022-08-19T03:35:26.218Z,961.89
2022-08-19T03:36:16.208Z,961.83
2022-08-19T03:37:06.197Z,961.89
2022-08-19T03:37:56.180Z,961.84
2022-08-19T03:38:46.178Z,961.83
2022-08-19T03:39:36.198Z,961.81
2022-08-19T03:40:26.148Z,961.85
2022-08-19T03:41:16.156Z,961.81
2022-08-19T03:42:45.354Z,961.81
2022-08-19T03:42:57.173Z,961.77
2022-08-19T03:43:46.117Z,961.76
2022-08-19T03:44:36.118Z,961.77
2022-08-19T03:45:26.118Z,961.77
2022-08-19T03:46:16.107Z,961.79
2022-08-19T03:47:06.108Z,961.82
2022-08-19T03:47:56.067Z,961.84
2022-08-19T03:48:46.068Z,961.85
2022-08-19T03:49:36.080Z,961.89
2022-08-19T03:50:26.058Z,961.88
2022-08-19T03:51:16.029Z,961.89
2022-08-19T03:52:06.065Z,961.93
2022-08-19T03:52:56.031Z,961.92
2022-08-19T03:53:46.029Z,961.95
2022-08-19T03:54:36.017Z,962.00
2022-08-19T03:55:26.017Z,961.99
2022-08-19T03:56:16.011Z,961.96
2022-08-19T03:57:06.009Z,961.97
2022-08-19T03:57:59.104Z,961.97
2022-08-19T03:58:46.549Z,962.00
2022-08-19T03:59:35.957Z,961.96
2022-08-19T04:00:25.965Z,962.00
2022-08-19T04:01:15.982Z,961.97
2022-08-19T04:02:05.970Z,961.96
2022-08-19T04:02:58.193Z,961.96
2022-08-19T04:03:45.917Z,961.88
2022-08-19T04:04:35.918Z,961.90
2022-08-19T04:05:27.723Z,961.89
2022-08-19T04:06:15.887Z,961.90
2022-08-19T04:07:05.897Z,961.87
2022-08-19T04:07:55.867Z,961.84
2022-08-19T04:08:45.880Z,961.84
2022-08-19T04:09:35.867Z,961.87
2022-08-19T04:10:25.846Z,961.89
2022-08-19T04:11:15.860Z,961.92
2022-08-19T04:12:05.867Z,961.93
2022-08-19T04:12:55.841Z,961.96
2022-08-19T04:13:45.820Z,961.99
2022-08-19T04:14:35.798Z,961.97
2022-08-19T04:15:25.796Z,962.01
2022-08-19T04:16:15.779Z,961.98
2022-08-19T04:17:06.068Z,962.04
2022-08-19T04:17:55.786Z,962.05
2022-08-19T04:18:45.769Z,962.00
2022-08-19T04:19:35.763Z,961.99
2022-08-19T04:20:25.758Z,962.03
2022-08-19T04:21:15.728Z,962.04
2022-08-19T04:22:05.779Z,962.05
2022-08-19T04:22:55.730Z,962.07
2022-08-19T04:23:45.935Z,962.07
2022-08-19T04:24:35.727Z,962.06
2022-08-19T04:25:25.700Z,962.04
2022-08-19T04:26:15.677Z,962.06
2022-08-19T04:27:05.675Z,962.02
2022-08-19T04:27:55.668Z,962.02
2022-08-19T04:28:45.668Z,962.00
2022-08-19T04:29:35.668Z,962.01
2022-08-19T04:30:25.660Z,962.05
2022-08-19T04:31:15.637Z,962.07
2022-08-19T04:32:08.966Z,962.08
2022-08-19T04:32:55.674Z,962.08
2022-08-19T04:33:45.616Z,962.01
2022-08-19T04:34:35.631Z,962.05
2022-08-19T04:35:25.609Z,962.06
2022-08-19T04:36:15.576Z,962.08
2022-08-19T04:37:05.587Z,962.08
2022-08-19T04:37:55.558Z,962.05
2022-08-19T04:38:45.568Z,962.03
2022-08-19T04:39:35.632Z,962.10
2022-08-19T04:40:25.552Z,962.06
2022-08-19T04:41:15.536Z,962.04
2022-08-19T04:42:05.518Z,962.06
2022-08-19T04:42:55.754Z,962.04
2022-08-19T04:43:45.526Z,962.06
2022-08-19T04:44:35.634Z,962.05
2022-08-19T04:45:25.487Z,962.04
2022-08-19T04:46:18.141Z,962.04
2022-08-19T04:47:10.847Z,962.03
2022-08-19T04:48:19.559Z,962.04
2022-08-19T04:48:49.477Z,962.05
2022-08-19T04:49:35.478Z,962.01
2022-08-19T04:50:25.447Z,962.03
2022-08-19T04:51:15.417Z,962.06
2022-08-19T04:52:05.416Z,962.02
2022-08-19T04:52:55.601Z,962.03
2022-08-19T04:53:45.398Z,962.05
2022-08-19T04:54:38.817Z,962.04
2022-08-19T04:55:25.405Z,962.06
2022-08-19T04:56:15.377Z,962.06
2022-08-19T04:57:05.367Z,962.06
2022-08-19T04:57:55.376Z,962.05
2022-08-19T04:58:45.367Z,962.07
2022-08-19T04:59:35.336Z,962.06
2022-08-19T05:00:25.353Z,962.07
2022-08-19T05:01:15.363Z,962.10
2022-08-19T05:02:05.339Z,962.16
2022-08-19T05:02:55.515Z,962.14
2022-08-19T05:03:45.310Z,962.16
2022-08-19T05:04:35.308Z,962.16
2022-08-19T05:05:25.477Z,962.19
2022-08-19T05:06:15.280Z,962.28
2022-08-19T05:07:05.287Z,962.23
2022-08-19T05:07:55.269Z,962.25
2022-08-19T05:08:45.248Z,962.25
2022-08-19T05:09:57.829Z,962.24
2022-08-19T05:10:26.247Z,962.21
2022-08-19T05:11:15.241Z,962.23
2022-08-19T05:12:05.254Z,962.20
2022-08-19T05:12:55.217Z,962.20
2022-08-19T05:13:45.198Z,962.22
2022-08-19T05:14:35.187Z,962.19
2022-08-19T05:15:25.197Z,962.20
2022-08-19T05:16:15.177Z,962.27
2022-08-19T05:17:26.041Z,962.26
2022-08-19T05:17:56.175Z,962.28
2022-08-19T05:18:45.147Z,962.31
2022-08-19T05:19:35.148Z,962.33
2022-08-19T05:20:25.134Z,962.38
2022-08-19T05:21:15.150Z,962.39
2022-08-19T05:22:05.119Z,962.39
2022-08-19T05:22:55.378Z,962.40
2022-08-19T05:23:45.120Z,962.36
2022-08-19T05:24:35.088Z,962.38
2022-08-19T05:25:25.115Z,962.39
2022-08-19T05:26:15.065Z,962.40
2022-08-19T05:27:05.068Z,962.41
2022-08-19T05:27:55.065Z,962.39
2022-08-19T05:28:45.046Z,962.44
2022-08-19T05:29:36.325Z,962.41
2022-08-19T05:30:37.581Z,962.46
2022-08-19T05:31:16.027Z,962.48
2022-08-19T05:32:05.020Z,962.46
2022-08-19T05:32:55.217Z,962.49
2022-08-19T05:33:45.008Z,962.51
2022-08-19T05:34:34.989Z,962.52
2022-08-19T05:35:24.997Z,962.54
2022-08-19T05:36:14.968Z,962.58
2022-08-19T05:37:04.987Z,962.58
2022-08-19T05:37:55.014Z,962.59
2022-08-19T05:38:44.959Z,962.63
2022-08-19T05:39:34.965Z,962.63
2022-08-19T05:40:24.938Z,962.59
2022-08-19T05:41:14.947Z,962.59
2022-08-19T05:42:04.926Z,962.60
2022-08-19T05:42:55.558Z,962.57
2022-08-19T05:43:44.887Z,962.58
2022-08-19T05:44:34.888Z,962.51
2022-08-19T05:45:24.887Z,962.60
2022-08-19T05:46:14.877Z,962.57
2022-08-19T05:47:04.878Z,962.60
2022-08-19T05:47:54.857Z,962.55
2022-08-19T05:48:44.841Z,962.56
2022-08-19T05:49:34.825Z,962.53
2022-08-19T05:50:24.918Z,962.48
2022-08-19T05:51:14.807Z,962.52
2022-08-19T05:52:04.804Z,962.50
2022-08-19T05:52:54.994Z,962.50
2022-08-19T05:53:44.785Z,962.47
2022-08-19T05:54:34.787Z,962.49
2022-08-19T05:55:24.811Z,962.45
2022-08-19T05:56:14.777Z,962.50
2022-08-19T05:57:04.758Z,962.51
2022-08-19T05:57:54.747Z,962.55
2022-08-19T05:58:44.755Z,962.52
2022-08-19T05:59:34.739Z,962.56
2022-08-19T06:00:24.906Z,962.56
2022-08-19T06:01:14.735Z,962.58
2022-08-19T06:02:04.708Z,962.61
2022-08-19T06:02:54.859Z,962.63
2022-08-19T06:03:44.710Z,962.64
2022-08-19T06:04:34.676Z,962.66
2022-08-19T06:05:24.666Z,962.69
2022-08-19T06:06:14.667Z,962.68
2022-08-19T06:07:12.201Z,962.75
2022-08-19T06:07:55.751Z,962.71
2022-08-19T06:08:44.697Z,962.71
2022-08-19T06:09:34.616Z,962.74
2022-08-19T06:10:24.614Z,962.76
2022-08-19T06:11:14.608Z,962.75
2022-08-19T06:12:04.613Z,962.76
2022-08-19T06:12:54.577Z,962.79
2022-08-19T06:13:44.591Z,962.77
2022-08-19T06:14:34.776Z,962.79
2022-08-19T06:15:24.572Z,962.82
2022-08-19T06:16:14.566Z,962.86
2022-08-19T06:17:07.118Z,962.81
2022-08-19T06:17:54.724Z,962.82
2022-08-19T06:18:44.556Z,962.87
2022-08-19T06:19:34.515Z,962.86
2022-08-19T06:20:52.305Z,962.84
2022-08-19T06:21:15.537Z,962.88
2022-08-19T06:22:04.525Z,962.82
2022-08-19T06:22:54.556Z,962.82
2022-08-19T06:23:44.476Z,962.86
2022-08-19T06:24:34.506Z,962.87
2022-08-19T06:25:28.860Z,962.90
2022-08-19T06:26:15.457Z,962.91
2022-08-19T06:27:04.463Z,962.91
2022-08-19T06:28:13.964Z,962.89
2022-08-19T06:28:45.456Z,962.92
2022-08-19T06:29:34.406Z,962.86
2022-08-19T06:30:24.407Z,962.92
2022-08-19T06:31:14.407Z,962.90
2022-08-19T06:32:04.386Z,962.90
2022-08-19T06:32:54.373Z,962.90
2022-08-19T06:33:44.374Z,962.92
2022-08-19T06:34:34.391Z,962.92
2022-08-19T06:35:24.358Z,962.89
2022-08-19T06:36:14.337Z,962.90
2022-08-19T06:37:04.338Z,962.93
2022-08-19T06:37:54.380Z,962.91
2022-08-19T06:38:44.337Z,962.95
2022-08-19T06:39:34.374Z,962.96
2022-08-19T06:40:24.317Z,962.93
2022-08-19T06:41:14.304Z,962.99
2022-08-19T06:42:04.287Z,962.97
2022-08-19T06:42:55.525Z,962.97
2022-08-19T06:43:44.290Z,962.95
2022-08-19T06:44:34.277Z,962.96
2022-08-19T06:45:24.501Z,962.97
2022-08-19T06:46:14.714Z,962.94
2022-08-19T06:47:09.638Z,962.94
2022-08-19T06:47:55.265Z,962.93
2022-08-19T06:48:45.322Z,962.93
2022-08-19T06:49:34.246Z,962.90
2022-08-19T06:50:25.003Z,962.90
2022-08-19T06:51:14.225Z,962.91
2022-08-19T06:52:04.239Z,962.91
2022-08-19T06:52:54.360Z,962.90
2022-08-19T06:53:44.240Z,962.88
2022-08-19T06:54:37.831Z,962.90
2022-08-19T06:55:25.166Z,962.88
2022-08-19T06:56:14.158Z,962.90
2022-08-19T06:57:04.166Z,962.91
2022-08-19T06:57:54.548Z,962.86
2022-08-19T06:58:44.136Z,962.83
2022-08-19T06:59:34.123Z,962.83
2022-08-19T07:00:24.143Z,962.82
2022-08-19T07:01:14.095Z,962.85
2022-08-19T07:02:04.098Z,962.87
2022-08-19T07:02:58.671Z,962.81
2022-08-19T07:03:45.067Z,962.83
2022-08-19T07:04:34.068Z,962.84
2022-08-19T07:05:24.057Z,962.79
2022-08-19T07:06:41.096Z,962.80
2022-08-19T07:07:20.344Z,962.85
2022-08-19T07:07:58.221Z,962.80
2022-08-19T07:08:45.028Z,962.85
2022-08-19T07:09:34.005Z,962.79
2022-08-19T07:10:24.037Z,962.85
2022-08-19T07:11:14.005Z,962.85
2022-08-19T07:12:03.985Z,962.88
2022-08-19T07:12:54.191Z,962.83
2022-08-19T07:13:44.027Z,962.84
2022-08-19T07:14:33.969Z,962.83
2022-08-19T07:15:23.966Z,962.82
2022-08-19T07:16:13.963Z,962.84
2022-08-19T07:17:04.984Z,962.87
2022-08-19T07:17:53.936Z,962.89
2022-08-19T07:18:44.437Z,962.89
2022-08-19T07:19:33.916Z,962.89
2022-08-19T07:20:28.385Z,962.91
2022-08-19T07:21:13.894Z,962.91
2022-08-19T07:22:03.895Z,962.91
2022-08-19T07:22:54.023Z,962.88
2022-08-19T07:23:43.879Z,962.91
2022-08-19T07:24:33.866Z,962.88
2022-08-19T07:25:32.240Z,962.95
2022-08-19T07:26:14.855Z,962.90
2022-08-19T07:27:03.869Z,962.92
2022-08-19T07:27:54.844Z,962.91
2022-08-19T07:28:51.307Z,962.89
2022-08-19T07:29:34.816Z,962.89
2022-08-19T07:30:23.807Z,962.91
2022-08-19T07:31:13.809Z,962.92
2022-08-19T07:32:03.798Z,962.89
2022-08-19T07:32:53.803Z,962.95
2022-08-19T07:33:43.756Z,962.88
2022-08-19T07:34:33.768Z,962.83
2022-08-19T07:35:23.756Z,962.84
2022-08-19T07:36:13.736Z,962.86
2022-08-19T07:37:03.749Z,962.83
2022-08-19T07:37:53.861Z,962.84
2022-08-19T07:38:43.720Z,962.84
2022-08-19T07:39:33.747Z,962.81
2022-08-19T07:40:23.686Z,962.82
2022-08-19T07:41:13.699Z,962.83
2022-08-19T07:42:03.694Z,962.83
2022-08-19T07:42:53.665Z,962.84
2022-08-19T07:43:43.653Z,962.84
2022-08-19T07:44:33.712Z,962.85
2022-08-19T07:45:23.658Z,962.85
2022-08-19T07:46:13.638Z,962.86
2022-08-19T07:47:03.631Z,962.89
2022-08-19T07:47:53.605Z,962.88
2022-08-19T07:48:43.607Z,962.84
2022-08-19T07:49:33.607Z,962.87
2022-08-19T07:50:23.617Z,962.88
2022-08-19T07:51:14.337Z,962.88
2022-08-19T07:52:03.576Z,962.92
2022-08-19T07:52:53.567Z,962.88
2022-08-19T07:53:43.561Z,962.89
2022-08-19T07:54:33.548Z,962.96
2022-08-19T07:55:41.654Z,962.96
2022-08-19T07:56:14.546Z,962.95
2022-08-19T07:57:03.500Z,962.95
2022-08-19T07:57:53.510Z,962.96
2022-08-19T07:58:43.570Z,962.91
2022-08-19T07:59:33.489Z,962.91
2022-08-19T08:00:24.269Z,962.89
2022-08-19T08:01:13.478Z,962.92
2022-08-19T08:02:03.486Z,962.91
2022-08-19T08:02:55.212Z,962.92
2022-08-19T08:03:43.448Z,962.92
2022-08-19T08:04:33.436Z,962.94
2022-08-19T08:05:23.416Z,962.96
2022-08-19T08:06:13.404Z,962.94
2022-08-19T08:07:03.393Z,962.96
2022-08-19T08:07:53.407Z,963.00
2022-08-19T08:08:44.281Z,962.98
2022-08-19T08:09:33.379Z,963.02
2022-08-19T08:10:24.189Z,963.04
2022-08-19T08:11:13.424Z,963.06
2022-08-19T08:12:13.333Z,963.10
2022-08-19T08:13:09.507Z,963.06
2022-08-19T08:13:44.325Z,963.02
2022-08-19T08:14:35.311Z,963.00
2022-08-19T08:15:23.310Z,963.02
2022-08-19T08:16:14.438Z,963.03
2022-08-19T08:17:03.436Z,963.04
2022-08-19T08:17:54.274Z,963.09
2022-08-19T08:18:43.327Z,963.07
2022-08-19T08:19:34.267Z,963.08
2022-08-19T08:20:23.237Z,963.14
2022-08-19T08:21:13.227Z,963.13
2022-08-19T08:22:03.236Z,963.18
2022-08-19T08:22:53.384Z,963.13
2022-08-19T08:23:43.229Z,963.14
2022-08-19T08:24:33.194Z,963.18
2022-08-19T08:25:23.188Z,963.15
2022-08-19T08:26:13.186Z,963.14
2022-08-19T08:27:03.157Z,963.13
2022-08-19T08:27:55.322Z,963.14
2022-08-19T08:28:43.148Z,963.16
2022-08-19T08:29:34.865Z,963.14
2022-08-19T08:30:23.175Z,963.16
2022-08-19T08:31:13.126Z,963.16
2022-08-19T08:32:03.107Z,963.16
2022-08-19T08:32:53.110Z,963.13
2022-08-19T08:33:43.290Z,963.13
2022-08-19T08:34:33.116Z,963.11
2022-08-19T08:35:23.101Z,963.09
2022-08-19T08:36:13.083Z,963.11
2022-08-19T08:37:03.046Z,963.15
2022-08-19T08:37:53.254Z,963.19
2022-08-19T08:38:43.156Z,963.14
2022-08-19T08:39:33.055Z,963.19
2022-08-19T08:40:23.054Z,963.18
2022-08-19T08:41:13.036Z,963.18
2022-08-19T08:42:09.970Z,963.21
2022-08-19T08:42:54.195Z,963.24
2022-08-19T08:43:42.997Z,963.27
2022-08-19T08:44:32.965Z,963.29
2022-08-19T08:45:22.957Z,963.27
2022-08-19T08:46:12.953Z,963.27
2022-08-19T08:47:02.955Z,963.32
2022-08-19T08:47:52.954Z,963.34
2022-08-19T08:48:42.918Z,963.35
2022-08-19T08:49:32.948Z,963.30
2022-08-19T08:50:22.920Z,963.33
2022-08-19T08:51:12.894Z,963.30
2022-08-19T08:52:02.901Z,963.35
2022-08-19T08:52:53.042Z,963.32
2022-08-19T08:53:42.870Z,963.33
2022-08-19T08:54:32.867Z,963.35
2022-08-19T08:55:22.900Z,963.36
2022-08-19T08:56:12.835Z,963.33
2022-08-19T08:57:02.817Z,963.31
2022-08-19T08:57:52.850Z,963.35
2022-08-19T08:58:42.814Z,963.37
2022-08-19T08:59:32.849Z,963.38
2022-08-19T09:00:22.805Z,963.44
2022-08-19T09:01:12.824Z,963.45
2022-08-19T09:02:02.784Z,963.43
2022-08-19T09:02:52.766Z,963.47
2022-08-19T09:03:42.883Z,963.48
2022-08-19T09:04:32.767Z,963.47
2022-08-19T09:05:25.785Z,963.46
2022-08-19T09:06:12.740Z,963.48
2022-08-19T09:07:02.741Z,963.49
2022-08-19T09:07:53.706Z,963.46
2022-08-19T09:08:44.142Z,963.45
2022-08-19T09:09:32.707Z,963.45
2022-08-19T09:10:22.715Z,963.48
2022-08-19T09:11:12.681Z,963.49
2022-08-19T09:12:02.645Z,963.50
2022-08-19T09:12:52.646Z,963.51
2022-08-19T09:13:42.667Z,963.49
2022-08-19T09:14:49.701Z,963.47
2022-08-19T09:15:29.109Z,963.46
2022-08-19T09:16:13.615Z,963.43
2022-08-19T09:17:02.586Z,963.48
2022-08-19T09:17:52.810Z,963.49
2022-08-19T09:18:42.614Z,963.49
2022-08-19T09:19:32.566Z,963.52
2022-08-19T09:20:22.569Z,963.51
2022-08-19T09:21:12.546Z,963.48
2022-08-19T09:22:02.560Z,963.50
2022-08-19T09:22:52.536Z,963.52
2022-08-19T09:23:42.546Z,963.50
2022-08-19T09:24:32.519Z,963.52
2022-08-19T09:25:26.746Z,963.52
2022-08-19T09:26:13.514Z,963.49
2022-08-19T09:27:06.684Z,963.49
2022-08-19T09:27:53.488Z,963.49
2022-08-19T09:28:42.496Z,963.49
2022-08-19T09:29:32.458Z,963.49
2022-08-19T09:30:22.478Z,963.51
2022-08-19T09:31:12.455Z,963.52
2022-08-19T09:32:02.437Z,963.55
2022-08-19T09:32:53.115Z,963.55
2022-08-19T09:33:42.406Z,963.60
2022-08-19T09:34:32.448Z,963.52
2022-08-19T09:35:23.406Z,963.54
2022-08-19T09:36:12.384Z,963.55
2022-08-19T09:37:03.375Z,963.57
2022-08-19T09:37:57.401Z,963.55
2022-08-19T09:38:43.589Z,963.58
2022-08-19T09:39:36.148Z,963.58
2022-08-19T09:40:22.382Z,963.54
2022-08-19T09:41:12.346Z,963.50
2022-08-19T09:42:02.343Z,963.56
2022-08-19T09:42:52.640Z,963.53
2022-08-19T09:43:44.520Z,963.56
2022-08-19T09:44:33.300Z,963.61
2022-08-19T09:45:22.306Z,963.60
2022-08-19T09:46:15.686Z,963.56
2022-08-19T09:47:03.268Z,963.54
2022-08-19T09:47:54.169Z,963.51
2022-08-19T09:48:42.246Z,963.56
2022-08-19T09:49:32.243Z,963.56
2022-08-19T09:50:22.247Z,963.52
2022-08-19T09:51:12.246Z,963.59
2022-08-19T09:52:02.224Z,963.61
2022-08-19T09:52:55.203Z,963.57
2022-08-19T09:53:43.198Z,963.63
2022-08-19T09:54:32.209Z,963.63
2022-08-19T09:55:22.188Z,963.64
2022-08-19T09:56:12.216Z,963.68
2022-08-19T09:57:04.607Z,963.69
2022-08-19T09:57:53.271Z,963.71
2022-08-19T09:58:42.136Z,963.72
2022-08-19T09:59:33.338Z,963.75
2022-08-19T10:00:22.138Z,963.77
2022-08-19T10:01:12.243Z,963.75
2022-08-19T10:02:04.002Z,963.75
2022-08-19T10:02:53.282Z,963.80
2022-08-19T10:03:42.119Z,963.75
2022-08-19T10:04:32.076Z,963.81
2022-08-19T10:05:23.103Z,963.75
2022-08-19T10:06:14.950Z,963.80
2022-08-19T10:07:02.056Z,963.77
2022-08-19T10:07:52.083Z,963.76
2022-08-19T10:08:50.037Z,963.75
2022-08-19T10:09:34.085Z,963.82
2022-08-19T10:10:22.044Z,963.77
2022-08-19T10:11:27.508Z,963.77
2022-08-19T10:12:03.039Z,963.78
2022-08-19T10:12:51.984Z,963.79
2022-08-19T10:13:41.999Z,963.79
2022-08-19T10:14:31.975Z,963.84
2022-08-19T10:15:28.865Z,963.81
2022-08-19T10:16:12.956Z,963.79
2022-08-19T10:17:01.947Z,963.78
2022-08-19T10:17:55.278Z,963.75
2022-08-19T10:18:44.161Z,963.76
2022-08-19T10:19:31.916Z,963.75
2022-08-19T10:20:21.929Z,963.71
2022-08-19T10:21:11.907Z,963.74
2022-08-19T10:22:01.875Z,963.71
2022-08-19T10:22:51.953Z,963.75
2022-08-19T10:23:41.875Z,963.74